WXM80 ListenWXM80 Stop

You find our weather info also at:

UK Metoffice

WeatherCloud

Weather Underground

Northeastern Weather Network

AWEKAS

Citizen Weather Observer Program (CWOP)

HAMweather, WeatherForYou, PWS Weather


Weather Underground History page Text

Daily Summary for October 18, 2017 Units:  Both    English   Metric
« Previous Day
Next Day »
Daily Weekly Monthly Yearly Custom
  High: Low: Average:
Temperature: 73.2 °F /  22.9 °C 45.7 °F /  7.6 °C 58.4 °F /  14.7 °C
Dew Point: 54.8 °F /  12.7 °C 40.8 °F /  4.9 °C 48.4 °F /  9.1 °C
Humidity: 85 % 48 % 71 %
Wind Speed: 4.6 mph /  7.4 km/h - 1.2 mph /  1.9 km/h
Wind Gust: 8.1 mph /  13 km/h - -
Wind:- - WSW
Pressure: 30.32 in /  1026.6 hPa 30.04 in /  1017.2 hPa -
Precipitation: 0.00 in /  0 mm    
Historical Graphs
 
 
Tabular Data for October 18, 2017
Time Temperature Dew Point Pressure Wind Wind Speed Wind Gust Humidity Rainfall Rate (Hourly)
00:01 50.2 °F /  10.1 °C 43.3 °F /  6.3 °C 30.28 in /  1025.3 hPa SW 1.9 mph /  3.1 km/h 4.0 mph /  6.4 km/h 77 % 0.00 in /  0 mm
00:06 50.2 °F /  10.1 °C 43.3 °F /  6.3 °C 30.28 in /  1025.3 hPa WSW 1.1 mph /  1.8 km/h 2.3 mph /  3.7 km/h 77 % 0.00 in /  0 mm
00:11 50.2 °F /  10.1 °C 42.9 °F /  6.1 °C 30.28 in /  1025.3 hPa SW 2.8 mph /  4.5 km/h 5.8 mph /  9.3 km/h 76 % 0.00 in /  0 mm
00:16 50.2 °F /  10.1 °C 42.9 °F /  6.1 °C 30.28 in /  1025.3 hPa SSW 0.4 mph /  0.6 km/h 2.3 mph /  3.7 km/h 76 % 0.00 in /  0 mm
00:21 50.2 °F /  10.1 °C 42.9 °F /  6.1 °C 30.28 in /  1025.3 hPa SSW 1.7 mph /  2.7 km/h 4.6 mph /  7.4 km/h 76 % 0.00 in /  0 mm
00:26 50.2 °F /  10.1 °C 42.9 °F /  6.1 °C 30.28 in /  1025.3 hPa West 1.8 mph /  2.9 km/h 4.6 mph /  7.4 km/h 76 % 0.00 in /  0 mm
00:31 50.2 °F /  10.1 °C 42.9 °F /  6.1 °C 30.28 in /  1025.3 hPa South 0.6 mph /  1 km/h 2.0 mph /  3.2 km/h 76 % 0.00 in /  0 mm
00:36 50.2 °F /  10.1 °C 42.9 °F /  6.1 °C 30.28 in /  1025.3 hPa WSW 0.2 mph /  0.3 km/h 3.5 mph /  5.6 km/h 76 % 0.00 in /  0 mm
00:41 50.2 °F /  10.1 °C 42.9 °F /  6.1 °C 30.27 in /  1024.9 hPa SSW 0.2 mph /  0.3 km/h 2.3 mph /  3.7 km/h 76 % 0.00 in /  0 mm
00:46 50.2 °F /  10.1 °C 42.9 °F /  6.1 °C 30.27 in /  1024.9 hPa SSW 0.2 mph /  0.3 km/h 1.2 mph /  1.9 km/h 76 % 0.00 in /  0 mm
00:51 50.1 °F /  10.1 °C 42.8 °F /  6 °C 30.27 in /  1024.9 hPa Calm     76 % 0.00 in /  0 mm
00:56 50.0 °F /  10 °C 42.7 °F /  5.9 °C 30.27 in /  1024.9 hPa Calm     76 % 0.00 in /  0 mm
01:01 49.9 °F /  9.9 °C 42.6 °F /  5.9 °C 30.27 in /  1024.9 hPa Calm     76 % 0.00 in /  0 mm
01:07 49.9 °F /  9.9 °C 43.0 °F /  6.1 °C 30.27 in /  1024.9 hPa Calm     77 % 0.00 in /  0 mm
01:12 49.7 °F /  9.8 °C 42.8 °F /  6 °C 30.27 in /  1024.9 hPa Calm     77 % 0.00 in /  0 mm
01:17 49.5 °F /  9.7 °C 42.6 °F /  5.9 °C 30.27 in /  1024.9 hPa Calm     77 % 0.00 in /  0 mm
01:22 49.4 °F /  9.7 °C 42.8 °F /  6 °C 30.28 in /  1025.3 hPa SSW 0.1 mph /  0.2 km/h 1.2 mph /  1.9 km/h 78 % 0.00 in /  0 mm
01:27 49.2 °F /  9.6 °C 42.6 °F /  5.9 °C 30.27 in /  1024.9 hPa Calm     78 % 0.00 in /  0 mm
01:32 49.0 °F /  9.4 °C 42.4 °F /  5.8 °C 30.27 in /  1024.9 hPa Calm     78 % 0.00 in /  0 mm
01:37 48.8 °F /  9.3 °C 42.2 °F /  5.7 °C 30.27 in /  1024.9 hPa Calm   1.0 mph /  1.6 km/h 78 % 0.00 in /  0 mm
01:42 48.6 °F /  9.2 °C 42.0 °F /  5.6 °C 30.27 in /  1024.9 hPa SW 0.3 mph /  0.5 km/h 1.2 mph /  1.9 km/h 78 % 0.00 in /  0 mm
01:47 48.4 °F /  9.1 °C 41.9 °F /  5.5 °C 30.28 in /  1025.3 hPa Calm     78 % 0.00 in /  0 mm
01:52 48.3 °F /  9.1 °C 41.8 °F /  5.4 °C 30.28 in /  1025.3 hPa Calm     78 % 0.00 in /  0 mm
01:57 48.2 °F /  9 °C 41.7 °F /  5.4 °C 30.28 in /  1025.3 hPa SW 2.1 mph /  3.4 km/h 5.8 mph /  9.3 km/h 78 % 0.00 in /  0 mm
02:02 48.2 °F /  9 °C 41.7 °F /  5.4 °C 30.28 in /  1025.3 hPa WSW 1.2 mph /  1.9 km/h 3.5 mph /  5.6 km/h 78 % 0.00 in /  0 mm
02:07 48.2 °F /  9 °C 41.7 °F /  5.4 °C 30.28 in /  1025.3 hPa WSW 2.8 mph /  4.5 km/h 4.6 mph /  7.4 km/h 78 % 0.00 in /  0 mm
02:12 48.2 °F /  9 °C 41.3 °F /  5.2 °C 30.27 in /  1024.9 hPa West 2.8 mph /  4.5 km/h 6.9 mph /  11.1 km/h 77 % 0.00 in /  0 mm
02:17 48.3 °F /  9.1 °C 41.1 °F /  5.1 °C 30.28 in /  1025.3 hPa West 1.2 mph /  1.9 km/h 3.5 mph /  5.6 km/h 76 % 0.00 in /  0 mm
02:22 48.5 °F /  9.2 °C 41.3 °F /  5.2 °C 30.27 in /  1024.9 hPa WSW 2.2 mph /  3.5 km/h 6.0 mph /  9.7 km/h 76 % 0.00 in /  0 mm
02:27 48.7 °F /  9.3 °C 41.1 °F /  5.1 °C 30.27 in /  1024.9 hPa WSW 1.5 mph /  2.4 km/h 3.5 mph /  5.6 km/h 75 % 0.00 in /  0 mm
02:32 48.8 °F /  9.3 °C 41.2 °F /  5.1 °C 30.27 in /  1024.9 hPa WSW 0.7 mph /  1.1 km/h 2.3 mph /  3.7 km/h 75 % 0.00 in /  0 mm
02:37 48.9 °F /  9.4 °C 41.3 °F /  5.2 °C 30.27 in /  1024.9 hPa SSW 1.6 mph /  2.6 km/h 4.6 mph /  7.4 km/h 75 % 0.00 in /  0 mm
02:42 49.0 °F /  9.4 °C 41.1 °F /  5.1 °C 30.27 in /  1024.9 hPa West 1.0 mph /  1.6 km/h 5.8 mph /  9.3 km/h 74 % 0.00 in /  0 mm
02:47 49.2 °F /  9.6 °C 41.3 °F /  5.2 °C 30.27 in /  1024.9 hPa SSW 1.5 mph /  2.4 km/h 4.0 mph /  6.4 km/h 74 % 0.00 in /  0 mm
02:52 49.3 °F /  9.6 °C 41.4 °F /  5.2 °C 30.26 in /  1024.6 hPa West 0.8 mph /  1.3 km/h 3.5 mph /  5.6 km/h 74 % 0.00 in /  0 mm
02:58 49.4 °F /  9.7 °C 41.5 °F /  5.3 °C 30.26 in /  1024.6 hPa WSW 1.2 mph /  1.9 km/h 4.6 mph /  7.4 km/h 74 % 0.00 in /  0 mm
03:03 49.4 °F /  9.7 °C 41.5 °F /  5.3 °C 30.26 in /  1024.6 hPa WSW 1.4 mph /  2.3 km/h 3.5 mph /  5.6 km/h 74 % 0.00 in /  0 mm
03:08 49.5 °F /  9.7 °C 41.2 °F /  5.1 °C 30.26 in /  1024.6 hPa SW 3.1 mph /  5 km/h 5.8 mph /  9.3 km/h 73 % 0.00 in /  0 mm
03:13 49.5 °F /  9.7 °C 41.2 °F /  5.1 °C 30.25 in /  1024.3 hPa SW 2.6 mph /  4.2 km/h 3.5 mph /  5.6 km/h 73 % 0.00 in /  0 mm
03:18 49.6 °F /  9.8 °C 41.3 °F /  5.2 °C 30.25 in /  1024.3 hPa WSW 0.6 mph /  1 km/h 5.8 mph /  9.3 km/h 73 % 0.00 in /  0 mm
03:23 49.6 °F /  9.8 °C 41.3 °F /  5.2 °C 30.26 in /  1024.6 hPa WSW 0.8 mph /  1.3 km/h 4.6 mph /  7.4 km/h 73 % 0.00 in /  0 mm
03:28 49.6 °F /  9.8 °C 41.3 °F /  5.2 °C 30.25 in /  1024.3 hPa WSW 1.6 mph /  2.6 km/h 3.5 mph /  5.6 km/h 73 % 0.00 in /  0 mm
03:33 49.6 °F /  9.8 °C 40.9 °F /  4.9 °C 30.25 in /  1024.3 hPa WSW 2.3 mph /  3.7 km/h 4.6 mph /  7.4 km/h 72 % 0.00 in /  0 mm
03:38 49.5 °F /  9.7 °C 40.8 °F /  4.9 °C 30.24 in /  1023.9 hPa SSW 3.8 mph /  6.1 km/h 6.0 mph /  9.7 km/h 72 % 0.00 in /  0 mm
03:43 49.6 °F /  9.8 °C 40.9 °F /  4.9 °C 30.24 in /  1023.9 hPa SW 2.5 mph /  4 km/h 6.9 mph /  11.1 km/h 72 % 0.00 in /  0 mm
03:48 49.6 °F /  9.8 °C 40.9 °F /  4.9 °C 30.25 in /  1024.3 hPa SW 1.8 mph /  2.9 km/h 3.5 mph /  5.6 km/h 72 % 0.00 in /  0 mm
03:53 49.6 °F /  9.8 °C 41.3 °F /  5.2 °C 30.24 in /  1023.9 hPa SSW 1.8 mph /  2.9 km/h 3.5 mph /  5.6 km/h 73 % 0.00 in /  0 mm
03:58 49.6 °F /  9.8 °C 41.7 °F /  5.4 °C 30.24 in /  1023.9 hPa West 0.1 mph /  0.2 km/h 3.5 mph /  5.6 km/h 74 % 0.00 in /  0 mm
04:03 49.6 °F /  9.8 °C 41.7 °F /  5.4 °C 30.25 in /  1024.3 hPa West 0.6 mph /  1 km/h 2.0 mph /  3.2 km/h 74 % 0.00 in /  0 mm
04:08 49.5 °F /  9.7 °C 41.6 °F /  5.3 °C 30.25 in /  1024.3 hPa West 0.3 mph /  0.5 km/h 1.2 mph /  1.9 km/h 74 % 0.00 in /  0 mm
04:13 49.5 °F /  9.7 °C 41.6 °F /  5.3 °C 30.25 in /  1024.3 hPa SW 1.0 mph /  1.6 km/h 3.5 mph /  5.6 km/h 74 % 0.00 in /  0 mm
04:18 49.4 °F /  9.7 °C 41.5 °F /  5.3 °C 30.25 in /  1024.3 hPa Calm   1.2 mph /  1.9 km/h 74 % 0.00 in /  0 mm
04:23 49.4 °F /  9.7 °C 41.8 °F /  5.4 °C 30.24 in /  1023.9 hPa SW 0.3 mph /  0.5 km/h 2.3 mph /  3.7 km/h 75 % 0.00 in /  0 mm
04:28 49.3 °F /  9.6 °C 42.1 °F /  5.6 °C 30.24 in /  1023.9 hPa SW 1.9 mph /  3.1 km/h 3.5 mph /  5.6 km/h 76 % 0.00 in /  0 mm
04:33 49.2 °F /  9.6 °C 42.0 °F /  5.6 °C 30.25 in /  1024.3 hPa Calm     76 % 0.00 in /  0 mm
04:38 49.1 °F /  9.5 °C 41.9 °F /  5.5 °C 30.25 in /  1024.3 hPa Calm     76 % 0.00 in /  0 mm
04:43 49.0 °F /  9.4 °C 41.8 °F /  5.4 °C 30.25 in /  1024.3 hPa Calm     76 % 0.00 in /  0 mm
04:48 48.9 °F /  9.4 °C 41.3 °F /  5.2 °C 30.26 in /  1024.6 hPa Calm     75 % 0.00 in /  0 mm
04:53 48.8 °F /  9.3 °C 41.6 °F /  5.3 °C 30.26 in /  1024.6 hPa Calm     76 % 0.00 in /  0 mm
04:58 48.6 °F /  9.2 °C 41.4 °F /  5.2 °C 30.26 in /  1024.6 hPa Calm     76 % 0.00 in /  0 mm
05:03 48.5 °F /  9.2 °C 41.3 °F /  5.2 °C 30.26 in /  1024.6 hPa Calm     76 % 0.00 in /  0 mm
05:09 48.4 °F /  9.1 °C 41.2 °F /  5.1 °C 30.26 in /  1024.6 hPa Calm     76 % 0.00 in /  0 mm
05:14 48.3 °F /  9.1 °C 41.1 °F /  5.1 °C 30.26 in /  1024.6 hPa Calm     76 % 0.00 in /  0 mm
05:19 48.1 °F /  8.9 °C 41.2 °F /  5.1 °C 30.27 in /  1024.9 hPa Calm     77 % 0.00 in /  0 mm
05:24 48.0 °F /  8.9 °C 41.1 °F /  5.1 °C 30.27 in /  1024.9 hPa SW 1.1 mph /  1.8 km/h 2.3 mph /  3.7 km/h 77 % 0.00 in /  0 mm
05:29 47.9 °F /  8.8 °C 41.0 °F /  5 °C 30.27 in /  1024.9 hPa WSW 0.2 mph /  0.3 km/h 1.2 mph /  1.9 km/h 77 % 0.00 in /  0 mm
05:34 47.8 °F /  8.8 °C 41.3 °F /  5.2 °C 30.27 in /  1024.9 hPa Calm   1.2 mph /  1.9 km/h 78 % 0.00 in /  0 mm
05:39 47.7 °F /  8.7 °C 41.2 °F /  5.1 °C 30.27 in /  1024.9 hPa Calm     78 % 0.00 in /  0 mm
05:44 47.6 °F /  8.7 °C 41.1 °F /  5.1 °C 30.27 in /  1024.9 hPa Calm     78 % 0.00 in /  0 mm
05:49 47.5 °F /  8.6 °C 41.3 °F /  5.2 °C 30.27 in /  1024.9 hPa Calm     79 % 0.00 in /  0 mm
05:54 47.4 °F /  8.6 °C 41.2 °F /  5.1 °C 30.27 in /  1024.9 hPa West 0.9 mph /  1.4 km/h 2.3 mph /  3.7 km/h 79 % 0.00 in /  0 mm
05:59 47.3 °F /  8.5 °C 41.1 °F /  5.1 °C 30.27 in /  1024.9 hPa Calm     79 % 0.00 in /  0 mm
06:00 47.3 °F /  8.5 °C 41.1 °F /  5.1 °C 30.27 in /  1024.9 hPa Calm   1.2 mph /  1.9 km/h 79 % 0.00 in /  0 mm
06:05 47.2 °F /  8.4 °C 41.3 °F /  5.2 °C 30.28 in /  1025.3 hPa West 0.3 mph /  0.5 km/h 2.3 mph /  3.7 km/h 80 % 0.00 in /  0 mm
06:10 47.1 °F /  8.4 °C 41.6 °F /  5.3 °C 30.28 in /  1025.3 hPa Calm     81 % 0.00 in /  0 mm
06:15 46.9 °F /  8.3 °C 41.4 °F /  5.2 °C 30.28 in /  1025.3 hPa Calm     81 % 0.00 in /  0 mm
06:20 46.7 °F /  8.2 °C 41.2 °F /  5.1 °C 30.28 in /  1025.3 hPa West 0.4 mph /  0.6 km/h 1.2 mph /  1.9 km/h 81 % 0.00 in /  0 mm
06:25 46.6 °F /  8.1 °C 41.4 °F /  5.2 °C 30.28 in /  1025.3 hPa West 0.4 mph /  0.6 km/h 1.2 mph /  1.9 km/h 82 % 0.00 in /  0 mm
06:30 46.4 °F /  8 °C 41.2 °F /  5.1 °C 30.28 in /  1025.3 hPa West 0.1 mph /  0.2 km/h 1.2 mph /  1.9 km/h 82 % 0.00 in /  0 mm
06:35 46.3 °F /  7.9 °C 41.1 °F /  5.1 °C 30.28 in /  1025.3 hPa Calm   1.2 mph /  1.9 km/h 82 % 0.00 in /  0 mm
06:40 46.1 °F /  7.8 °C 41.2 °F /  5.1 °C 30.27 in /  1024.9 hPa West 1.4 mph /  2.3 km/h 3.0 mph /  4.8 km/h 83 % 0.00 in /  0 mm
06:45 45.9 °F /  7.7 °C 41.3 °F /  5.2 °C 30.28 in /  1025.3 hPa West 1.0 mph /  1.6 km/h 2.3 mph /  3.7 km/h 84 % 0.00 in /  0 mm
06:50 45.7 °F /  7.6 °C 41.1 °F /  5.1 °C 30.27 in /  1024.9 hPa SW 0.7 mph /  1.1 km/h 2.3 mph /  3.7 km/h 84 % 0.00 in /  0 mm
06:56 45.7 °F /  7.6 °C 41.1 °F /  5.1 °C 30.27 in /  1024.9 hPa WSW 2.0 mph /  3.2 km/h 6.0 mph /  9.7 km/h 84 % 0.00 in /  0 mm
07:01 45.7 °F /  7.6 °C 41.1 °F /  5.1 °C 30.27 in /  1024.9 hPa WSW 1.3 mph /  2.1 km/h 3.5 mph /  5.6 km/h 84 % 0.00 in /  0 mm
07:06 45.8 °F /  7.7 °C 41.2 °F /  5.1 °C 30.27 in /  1024.9 hPa West 0.9 mph /  1.4 km/h 3.5 mph /  5.6 km/h 84 % 0.00 in /  0 mm
07:11 46.0 °F /  7.8 °C 41.4 °F /  5.2 °C 30.28 in /  1025.3 hPa West 2.0 mph /  3.2 km/h 5.0 mph /  8 km/h 84 % 0.00 in /  0 mm
07:16 46.2 °F /  7.9 °C 41.6 °F /  5.3 °C 30.28 in /  1025.3 hPa WSW 2.1 mph /  3.4 km/h 4.6 mph /  7.4 km/h 84 % 0.00 in /  0 mm
07:18 46.3 °F /  7.9 °C 41.7 °F /  5.4 °C 30.28 in /  1025.3 hPa WSW 3.0 mph /  4.8 km/h 3.5 mph /  5.6 km/h 84 % 0.00 in /  0 mm
07:22 46.5 °F /  8.1 °C 41.6 °F /  5.3 °C 30.28 in /  1025.3 hPa SW 2.5 mph /  4 km/h 4.6 mph /  7.4 km/h 83 % 0.00 in /  0 mm
07:28 46.8 °F /  8.2 °C 41.9 °F /  5.5 °C 30.28 in /  1025.3 hPa SW 2.9 mph /  4.7 km/h 3.5 mph /  5.6 km/h 83 % 0.00 in /  0 mm
07:33 47.1 °F /  8.4 °C 41.9 °F /  5.5 °C 30.29 in /  1025.6 hPa WSW 2.3 mph /  3.7 km/h 6.9 mph /  11.1 km/h 82 % 0.00 in /  0 mm
07:38 47.4 °F /  8.6 °C 42.2 °F /  5.7 °C 30.29 in /  1025.6 hPa WSW 2.1 mph /  3.4 km/h 4.6 mph /  7.4 km/h 82 % 0.00 in /  0 mm
07:43 47.7 °F /  8.7 °C 42.2 °F /  5.7 °C 30.29 in /  1025.6 hPa SW 2.2 mph /  3.5 km/h 6.9 mph /  11.1 km/h 81 % 0.00 in /  0 mm
07:48 48.0 °F /  8.9 °C 42.4 °F /  5.8 °C 30.29 in /  1025.6 hPa SW 3.1 mph /  5 km/h 5.8 mph /  9.3 km/h 81 % 0.00 in /  0 mm
07:53 48.2 °F /  9 °C 42.3 °F /  5.7 °C 30.29 in /  1025.6 hPa WSW 4.0 mph /  6.4 km/h 5.8 mph /  9.3 km/h 80 % 0.00 in /  0 mm
07:58 48.5 °F /  9.2 °C 42.6 °F /  5.9 °C 30.29 in /  1025.6 hPa SSW 2.3 mph /  3.7 km/h 3.5 mph /  5.6 km/h 80 % 0.00 in /  0 mm
08:03 48.7 °F /  9.3 °C 42.8 °F /  6 °C 30.29 in /  1025.6 hPa SW 1.5 mph /  2.4 km/h 5.0 mph /  8 km/h 80 % 0.00 in /  0 mm
08:08 48.9 °F /  9.4 °C 42.7 °F /  5.9 °C 30.30 in /  1026 hPa Calm     79 % 0.00 in /  0 mm
08:13 49.2 °F /  9.6 °C 42.6 °F /  5.9 °C 30.31 in /  1026.3 hPa Calm     78 % 0.00 in /  0 mm
08:18 49.4 °F /  9.7 °C 43.2 °F /  6.2 °C 30.30 in /  1026 hPa SW 1.8 mph /  2.9 km/h 3.5 mph /  5.6 km/h 79 % 0.00 in /  0 mm
08:23 49.6 °F /  9.8 °C 43.4 °F /  6.3 °C 30.30 in /  1026 hPa SW 1.8 mph /  2.9 km/h 3.5 mph /  5.6 km/h 79 % 0.00 in /  0 mm
08:28 49.8 °F /  9.9 °C 43.5 °F /  6.4 °C 30.30 in /  1026 hPa SW 3.0 mph /  4.8 km/h 6.0 mph /  9.7 km/h 79 % 0.00 in /  0 mm
08:33 50.0 °F /  10 °C 43.7 °F /  6.5 °C 30.30 in /  1026 hPa SSW 3.5 mph /  5.6 km/h 4.6 mph /  7.4 km/h 79 % 0.00 in /  0 mm
08:38 50.2 °F /  10.1 °C 43.6 °F /  6.4 °C 30.30 in /  1026 hPa SSW 2.1 mph /  3.4 km/h 3.5 mph /  5.6 km/h 78 % 0.00 in /  0 mm
08:43 50.4 °F /  10.2 °C 44.1 °F /  6.7 °C 30.30 in /  1026 hPa WSW 3.8 mph /  6.1 km/h 5.0 mph /  8 km/h 79 % 0.00 in /  0 mm
08:48 50.7 °F /  10.4 °C 44.1 °F /  6.7 °C 30.30 in /  1026 hPa SW 2.6 mph /  4.2 km/h 4.0 mph /  6.4 km/h 78 % 0.00 in /  0 mm
08:53 50.9 °F /  10.5 °C 44.3 °F /  6.8 °C 30.30 in /  1026 hPa SSW 3.2 mph /  5.1 km/h 4.6 mph /  7.4 km/h 78 % 0.00 in /  0 mm
08:58 51.2 °F /  10.7 °C 44.2 °F /  6.8 °C 30.30 in /  1026 hPa WSW 3.3 mph /  5.3 km/h 4.6 mph /  7.4 km/h 77 % 0.00 in /  0 mm
09:03 51.5 °F /  10.8 °C 44.5 °F /  6.9 °C 30.30 in /  1026 hPa WSW 4.5 mph /  7.2 km/h 6.0 mph /  9.7 km/h 77 % 0.00 in /  0 mm
09:08 51.8 °F /  11 °C 44.5 °F /  6.9 °C 30.31 in /  1026.3 hPa West 1.7 mph /  2.7 km/h 3.5 mph /  5.6 km/h 76 % 0.00 in /  0 mm
09:09 51.8 °F /  11 °C 44.5 °F /  6.9 °C 30.31 in /  1026.3 hPa West 1.8 mph /  2.9 km/h 4.0 mph /  6.4 km/h 76 % 0.00 in /  0 mm
09:14 52.2 °F /  11.2 °C 45.2 °F /  7.3 °C 30.31 in /  1026.3 hPa WSW 1.1 mph /  1.8 km/h 4.6 mph /  7.4 km/h 77 % 0.00 in /  0 mm
09:19 52.5 °F /  11.4 °C 45.5 °F /  7.5 °C 30.30 in /  1026 hPa WNW 3.9 mph /  6.3 km/h 5.8 mph /  9.3 km/h 77 % 0.00 in /  0 mm
09:24 52.8 °F /  11.6 °C 45.8 °F /  7.7 °C 30.30 in /  1026 hPa West 3.5 mph /  5.6 km/h 7.0 mph /  11.3 km/h 77 % 0.00 in /  0 mm
09:29 53.2 °F /  11.8 °C 46.5 °F /  8.1 °C 30.30 in /  1026 hPa SW 4.4 mph /  7.1 km/h 5.8 mph /  9.3 km/h 78 % 0.00 in /  0 mm
09:34 53.5 °F /  11.9 °C 46.8 °F /  8.2 °C 30.30 in /  1026 hPa WNW 1.6 mph /  2.6 km/h 3.5 mph /  5.6 km/h 78 % 0.00 in /  0 mm
09:39 53.9 °F /  12.2 °C 47.2 °F /  8.4 °C 30.31 in /  1026.3 hPa WSW 2.2 mph /  3.5 km/h 3.5 mph /  5.6 km/h 78 % 0.00 in /  0 mm
09:44 54.3 °F /  12.4 °C 47.2 °F /  8.4 °C 30.31 in /  1026.3 hPa WNW 3.6 mph /  5.8 km/h 6.9 mph /  11.1 km/h 77 % 0.00 in /  0 mm
09:49 54.7 °F /  12.6 °C 47.6 °F /  8.7 °C 30.31 in /  1026.3 hPa West 4.0 mph /  6.4 km/h 5.0 mph /  8 km/h 77 % 0.00 in /  0 mm
09:54 55.1 °F /  12.8 °C 47.7 °F /  8.7 °C 30.31 in /  1026.3 hPa SSW 4.6 mph /  7.4 km/h 5.8 mph /  9.3 km/h 76 % 0.00 in /  0 mm
09:59 55.7 °F /  13.2 °C 48.2 °F /  9 °C 30.30 in /  1026 hPa West 2.9 mph /  4.7 km/h 4.0 mph /  6.4 km/h 76 % 0.00 in /  0 mm
10:04 56.2 °F /  13.4 °C 48.7 °F /  9.3 °C 30.30 in /  1026 hPa WSW 1.5 mph /  2.4 km/h 3.5 mph /  5.6 km/h 76 % 0.00 in /  0 mm
10:09 56.8 °F /  13.8 °C 49.0 °F /  9.4 °C 30.30 in /  1026 hPa SW 3.5 mph /  5.6 km/h 7.0 mph /  11.3 km/h 75 % 0.00 in /  0 mm
10:14 57.3 °F /  14.1 °C 48.7 °F /  9.3 °C 30.30 in /  1026 hPa WNW 2.1 mph /  3.4 km/h 4.6 mph /  7.4 km/h 73 % 0.00 in /  0 mm
10:19 57.7 °F /  14.3 °C 49.5 °F /  9.7 °C 30.30 in /  1026 hPa WNW 0.5 mph /  0.8 km/h 2.3 mph /  3.7 km/h 74 % 0.00 in /  0 mm
10:24 58.1 °F /  14.5 °C 49.5 °F /  9.7 °C 30.30 in /  1026 hPa WNW 0.1 mph /  0.2 km/h 1.2 mph /  1.9 km/h 73 % 0.00 in /  0 mm
10:29 58.4 °F /  14.7 °C 49.8 °F /  9.9 °C 30.30 in /  1026 hPa West 3.3 mph /  5.3 km/h 4.0 mph /  6.4 km/h 73 % 0.00 in /  0 mm
10:34 58.7 °F /  14.8 °C 49.7 °F /  9.8 °C 30.30 in /  1026 hPa West 1.4 mph /  2.3 km/h 6.9 mph /  11.1 km/h 72 % 0.00 in /  0 mm
10:39 58.9 °F /  14.9 °C 49.9 °F /  9.9 °C 30.30 in /  1026 hPa WSW 0.5 mph /  0.8 km/h 3.5 mph /  5.6 km/h 72 % 0.00 in /  0 mm
10:44 59.1 °F /  15.1 °C 50.1 °F /  10.1 °C 30.30 in /  1026 hPa WNW 1.3 mph /  2.1 km/h 3.5 mph /  5.6 km/h 72 % 0.00 in /  0 mm
10:50 59.3 °F /  15.2 °C 49.9 °F /  9.9 °C 30.30 in /  1026 hPa NW 2.0 mph /  3.2 km/h 3.5 mph /  5.6 km/h 71 % 0.00 in /  0 mm
10:55 59.5 °F /  15.3 °C 49.7 °F /  9.8 °C 30.30 in /  1026 hPa WNW 2.9 mph /  4.7 km/h 8.1 mph /  13 km/h 70 % 0.00 in /  0 mm
11:00 59.7 °F /  15.4 °C 49.5 °F /  9.7 °C 30.30 in /  1026 hPa WNW 0.3 mph /  0.5 km/h 3.0 mph /  4.8 km/h 69 % 0.00 in /  0 mm
11:05 59.9 °F /  15.5 °C 50.1 °F /  10.1 °C 30.30 in /  1026 hPa WSW 3.9 mph /  6.3 km/h 5.8 mph /  9.3 km/h 70 % 0.00 in /  0 mm
11:10 60.2 °F /  15.7 °C 50.0 °F /  10 °C 30.30 in /  1026 hPa West 3.7 mph /  6 km/h 5.8 mph /  9.3 km/h 69 % 0.00 in /  0 mm
11:15 60.6 °F /  15.9 °C 50.4 °F /  10.2 °C 30.30 in /  1026 hPa WNW 1.2 mph /  1.9 km/h 3.5 mph /  5.6 km/h 69 % 0.00 in /  0 mm
11:20 61.2 °F /  16.2 °C 50.2 °F /  10.1 °C 30.30 in /  1026 hPa SW 2.3 mph /  3.7 km/h 3.5 mph /  5.6 km/h 67 % 0.00 in /  0 mm
11:25 62.0 °F /  16.7 °C 51.7 °F /  10.9 °C 30.30 in /  1026 hPa SSW 2.9 mph /  4.7 km/h 7.0 mph /  11.3 km/h 69 % 0.00 in /  0 mm
11:30 63.0 °F /  17.2 °C 52.3 °F /  11.3 °C 30.30 in /  1026 hPa WSW 1.2 mph /  1.9 km/h 4.6 mph /  7.4 km/h 68 % 0.00 in /  0 mm
11:35 63.9 °F /  17.7 °C 52.3 °F /  11.3 °C 30.30 in /  1026 hPa NNW 1.1 mph /  1.8 km/h 3.5 mph /  5.6 km/h 66 % 0.00 in /  0 mm
11:40 64.9 °F /  18.3 °C 52.8 °F /  11.6 °C 30.31 in /  1026.3 hPa WNW 1.5 mph /  2.4 km/h 3.0 mph /  4.8 km/h 65 % 0.00 in /  0 mm
11:45 65.8 °F /  18.8 °C 53.3 °F /  11.8 °C 30.31 in /  1026.3 hPa Calm   2.3 mph /  3.7 km/h 64 % 0.00 in /  0 mm
11:50 66.8 °F /  19.3 °C 52.5 °F /  11.4 °C 30.31 in /  1026.3 hPa WNW 1.7 mph /  2.7 km/h 3.5 mph /  5.6 km/h 60 % 0.00 in /  0 mm
11:55 67.6 °F /  19.8 °C 53.7 °F /  12.1 °C 30.31 in /  1026.3 hPa WNW 0.3 mph /  0.5 km/h 1.2 mph /  1.9 km/h 61 % 0.00 in /  0 mm
12:00 68.1 °F /  20.1 °C 52.3 °F /  11.3 °C 30.31 in /  1026.3 hPa WNW 3.6 mph /  5.8 km/h 5.0 mph /  8 km/h 57 % 0.00 in /  0 mm
12:05 68.5 °F /  20.3 °C 52.7 °F /  11.5 °C 30.30 in /  1026 hPa NW 2.9 mph /  4.7 km/h 3.5 mph /  5.6 km/h 57 % 0.00 in /  0 mm
12:10 68.7 °F /  20.4 °C 54.3 °F /  12.4 °C 30.30 in /  1026 hPa NW 0.1 mph /  0.2 km/h 1.2 mph /  1.9 km/h 60 % 0.00 in /  0 mm
12:16 69.2 °F /  20.7 °C 52.8 °F /  11.6 °C 30.30 in /  1026 hPa Calm   2.0 mph /  3.2 km/h 56 % 0.00 in /  0 mm
12:20 69.5 °F /  20.8 °C 52.6 °F /  11.4 °C 30.30 in /  1026 hPa Calm   3.0 mph /  4.8 km/h 55 % 0.00 in /  0 mm
12:25 69.6 °F /  20.9 °C 51.7 °F /  10.9 °C 30.30 in /  1026 hPa West 2.2 mph /  3.5 km/h 3.5 mph /  5.6 km/h 53 % 0.00 in /  0 mm
12:30 69.7 °F /  20.9 °C 52.3 °F /  11.3 °C 30.30 in /  1026 hPa West 1.0 mph /  1.6 km/h 4.0 mph /  6.4 km/h 54 % 0.00 in /  0 mm
12:35 69.7 °F /  20.9 °C 51.8 °F /  11 °C 30.30 in /  1026 hPa West 1.0 mph /  1.6 km/h 3.0 mph /  4.8 km/h 53 % 0.00 in /  0 mm
12:41 69.7 °F /  20.9 °C 53.8 °F /  12.1 °C 30.30 in /  1026 hPa Calm   2.0 mph /  3.2 km/h 57 % 0.00 in /  0 mm
12:45 69.8 °F /  21 °C 53.4 °F /  11.9 °C 30.29 in /  1025.6 hPa Calm   3.0 mph /  4.8 km/h 56 % 0.00 in /  0 mm
12:51 70.0 °F /  21.1 °C 51.0 °F /  10.6 °C 30.29 in /  1025.6 hPa WNW 1.0 mph /  1.6 km/h 6.0 mph /  9.7 km/h 51 % 0.00 in /  0 mm
12:55 70.1 °F /  21.2 °C 51.7 °F /  10.9 °C 30.29 in /  1025.6 hPa Calm   4.0 mph /  6.4 km/h 52 % 0.00 in /  0 mm
13:01 70.3 °F /  21.3 °C 51.8 °F /  11 °C 30.32 in /  1026.6 hPa WSW 2.6 mph /  4.2 km/h 3.5 mph /  5.6 km/h 52 % 0.00 in /  0 mm
13:06 70.5 °F /  21.4 °C 51.0 °F /  10.6 °C 30.30 in /  1026 hPa West 3.3 mph /  5.3 km/h 6.9 mph /  11.1 km/h 50 % 0.00 in /  0 mm
13:11 70.7 °F /  21.5 °C 53.2 °F /  11.8 °C 30.28 in /  1025.3 hPa NW 0.7 mph /  1.1 km/h 3.5 mph /  5.6 km/h 54 % 0.00 in /  0 mm
13:16 70.9 °F /  21.6 °C 53.4 °F /  11.9 °C 30.28 in /  1025.3 hPa NW 1.4 mph /  2.3 km/h 3.5 mph /  5.6 km/h 54 % 0.00 in /  0 mm
13:21 71.0 °F /  21.7 °C 52.5 °F /  11.4 °C 30.27 in /  1024.9 hPa West 2.0 mph /  3.2 km/h 3.5 mph /  5.6 km/h 52 % 0.00 in /  0 mm
13:26 71.1 °F /  21.7 °C 52.6 °F /  11.4 °C 30.27 in /  1024.9 hPa WNW 1.5 mph /  2.4 km/h 3.5 mph /  5.6 km/h 52 % 0.00 in /  0 mm
13:31 71.2 °F /  21.8 °C 53.7 °F /  12.1 °C 30.27 in /  1024.9 hPa WNW 0.2 mph /  0.3 km/h 3.5 mph /  5.6 km/h 54 % 0.00 in /  0 mm
13:36 71.3 °F /  21.8 °C 54.3 °F /  12.4 °C 30.27 in /  1024.9 hPa WSW 2.2 mph /  3.5 km/h 3.5 mph /  5.6 km/h 55 % 0.00 in /  0 mm
13:41 71.3 °F /  21.8 °C 51.1 °F /  10.6 °C 30.27 in /  1024.9 hPa WNW 1.4 mph /  2.3 km/h 3.5 mph /  5.6 km/h 49 % 0.00 in /  0 mm
13:46 71.5 °F /  21.9 °C 51.9 °F /  11.1 °C 30.27 in /  1024.9 hPa WNW 2.7 mph /  4.3 km/h 5.0 mph /  8 km/h 50 % 0.00 in /  0 mm
13:51 71.6 °F /  22 °C 52.0 °F /  11.1 °C 30.26 in /  1024.6 hPa WSW 2.7 mph /  4.3 km/h 4.0 mph /  6.4 km/h 50 % 0.00 in /  0 mm
13:56 71.7 °F /  22.1 °C 52.1 °F /  11.2 °C 30.26 in /  1024.6 hPa West 1.2 mph /  1.9 km/h 4.0 mph /  6.4 km/h 50 % 0.00 in /  0 mm
14:01 71.8 °F /  22.1 °C 51.0 °F /  10.6 °C 30.26 in /  1024.6 hPa WNW 2.8 mph /  4.5 km/h 5.8 mph /  9.3 km/h 48 % 0.00 in /  0 mm
14:06 71.9 °F /  22.2 °C 51.1 °F /  10.6 °C 30.26 in /  1024.6 hPa WNW 1.5 mph /  2.4 km/h 3.5 mph /  5.6 km/h 48 % 0.00 in /  0 mm
14:11 71.9 °F /  22.2 °C 52.2 °F /  11.2 °C 30.26 in /  1024.6 hPa NW 2.1 mph /  3.4 km/h 5.8 mph /  9.3 km/h 50 % 0.00 in /  0 mm
14:16 72.0 °F /  22.2 °C 52.3 °F /  11.3 °C 30.26 in /  1024.6 hPa WNW 1.7 mph /  2.7 km/h 3.5 mph /  5.6 km/h 50 % 0.00 in /  0 mm
14:21 72.1 °F /  22.3 °C 51.9 °F /  11.1 °C 30.26 in /  1024.6 hPa WNW 1.7 mph /  2.7 km/h 3.5 mph /  5.6 km/h 49 % 0.00 in /  0 mm
14:26 72.2 °F /  22.3 °C 52.0 °F /  11.1 °C 30.26 in /  1024.6 hPa Calm     49 % 0.00 in /  0 mm
14:31 72.4 °F /  22.4 °C 52.7 °F /  11.5 °C 30.25 in /  1024.3 hPa SSW 3.0 mph /  4.8 km/h 4.0 mph /  6.4 km/h 50 % 0.00 in /  0 mm
14:36 72.5 °F /  22.5 °C 52.8 °F /  11.6 °C 30.25 in /  1024.3 hPa WSW 2.7 mph /  4.3 km/h 3.5 mph /  5.6 km/h 50 % 0.00 in /  0 mm
14:41 72.6 °F /  22.6 °C 53.4 °F /  11.9 °C 30.25 in /  1024.3 hPa WSW 1.4 mph /  2.3 km/h 3.5 mph /  5.6 km/h 51 % 0.00 in /  0 mm
14:46 72.8 °F /  22.7 °C 53.1 °F /  11.7 °C 30.25 in /  1024.3 hPa West 0.9 mph /  1.4 km/h 2.3 mph /  3.7 km/h 50 % 0.00 in /  0 mm
14:51 73.0 °F /  22.8 °C 52.1 °F /  11.2 °C 30.28 in /  1025.3 hPa WSW 2.9 mph /  4.7 km/h 5.0 mph /  8 km/h 48 % 0.00 in /  0 mm
14:56 73.1 °F /  22.8 °C 52.8 °F /  11.6 °C 30.25 in /  1024.3 hPa West 2.4 mph /  3.9 km/h 3.5 mph /  5.6 km/h 49 % 0.00 in /  0 mm
15:01 73.2 °F /  22.9 °C 52.3 °F /  11.3 °C 30.25 in /  1024.3 hPa WNW 1.4 mph /  2.3 km/h 3.5 mph /  5.6 km/h 48 % 0.00 in /  0 mm
15:06 73.2 °F /  22.9 °C 52.3 °F /  11.3 °C 30.25 in /  1024.3 hPa WNW 1.3 mph /  2.1 km/h 3.5 mph /  5.6 km/h 48 % 0.00 in /  0 mm
15:11 73.2 °F /  22.9 °C 52.9 °F /  11.6 °C 30.25 in /  1024.3 hPa WNW 1.6 mph /  2.6 km/h 3.5 mph /  5.6 km/h 49 % 0.00 in /  0 mm
15:16 73.2 °F /  22.9 °C 52.9 °F /  11.6 °C 30.25 in /  1024.3 hPa WNW 0.6 mph /  1 km/h 2.3 mph /  3.7 km/h 49 % 0.00 in /  0 mm
15:21 73.0 °F /  22.8 °C 52.7 °F /  11.5 °C 30.25 in /  1024.3 hPa WNW 0.7 mph /  1.1 km/h 2.3 mph /  3.7 km/h 49 % 0.00 in /  0 mm
15:26 72.8 °F /  22.7 °C 53.1 °F /  11.7 °C 30.25 in /  1024.3 hPa Calm   1.2 mph /  1.9 km/h 50 % 0.00 in /  0 mm
15:31 72.6 °F /  22.6 °C 52.3 °F /  11.3 °C 30.24 in /  1023.9 hPa West 0.1 mph /  0.2 km/h 1.0 mph /  1.6 km/h 49 % 0.00 in /  0 mm
15:36 72.4 °F /  22.4 °C 52.7 °F /  11.5 °C 30.24 in /  1023.9 hPa WNW 0.3 mph /  0.5 km/h 3.5 mph /  5.6 km/h 50 % 0.00 in /  0 mm
15:41 72.2 °F /  22.3 °C 52.5 °F /  11.4 °C 30.24 in /  1023.9 hPa WNW 1.8 mph /  2.9 km/h 3.5 mph /  5.6 km/h 50 % 0.00 in /  0 mm
15:46 72.0 °F /  22.2 °C 52.3 °F /  11.3 °C 30.24 in /  1023.9 hPa WNW 0.6 mph /  1 km/h 3.0 mph /  4.8 km/h 50 % 0.00 in /  0 mm
15:51 71.7 °F /  22.1 °C 52.6 °F /  11.4 °C 30.24 in /  1023.9 hPa Calm     51 % 0.00 in /  0 mm
15:56 71.6 °F /  22 °C 52.0 °F /  11.1 °C 30.24 in /  1023.9 hPa WSW 0.7 mph /  1.1 km/h 2.3 mph /  3.7 km/h 50 % 0.00 in /  0 mm
16:01 71.4 °F /  21.9 °C 52.3 °F /  11.3 °C 30.24 in /  1023.9 hPa Calm   1.2 mph /  1.9 km/h 51 % 0.00 in /  0 mm
16:07 71.2 °F /  21.8 °C 52.1 °F /  11.2 °C 30.24 in /  1023.9 hPa SSW 1.2 mph /  1.9 km/h 3.5 mph /  5.6 km/h 51 % 0.00 in /  0 mm
16:12 71.0 °F /  21.7 °C 52.5 °F /  11.4 °C 30.24 in /  1023.9 hPa WSW 2.8 mph /  4.5 km/h 3.5 mph /  5.6 km/h 52 % 0.00 in /  0 mm
16:17 70.9 °F /  21.6 °C 52.9 °F /  11.6 °C 30.23 in /  1023.6 hPa WSW 0.1 mph /  0.2 km/h 1.2 mph /  1.9 km/h 53 % 0.00 in /  0 mm
16:22 70.7 °F /  21.5 °C 52.2 °F /  11.2 °C 30.24 in /  1023.9 hPa West 0.4 mph /  0.6 km/h 2.3 mph /  3.7 km/h 52 % 0.00 in /  0 mm
16:28 70.6 °F /  21.4 °C 52.6 °F /  11.4 °C 30.23 in /  1023.6 hPa West 1.8 mph /  2.9 km/h 3.5 mph /  5.6 km/h 53 % 0.00 in /  0 mm
16:33 70.5 °F /  21.4 °C 52.5 °F /  11.4 °C 30.23 in /  1023.6 hPa West 0.3 mph /  0.5 km/h 2.3 mph /  3.7 km/h 53 % 0.00 in /  0 mm
16:38 70.4 °F /  21.3 °C 52.4 °F /  11.3 °C 30.23 in /  1023.6 hPa West 0.8 mph /  1.3 km/h 2.3 mph /  3.7 km/h 53 % 0.00 in /  0 mm
16:43 70.2 °F /  21.2 °C 52.3 °F /  11.3 °C 30.23 in /  1023.6 hPa West 0.3 mph /  0.5 km/h 1.2 mph /  1.9 km/h 53 % 0.00 in /  0 mm
16:48 70.1 °F /  21.2 °C 52.2 °F /  11.2 °C 30.23 in /  1023.6 hPa Calm     53 % 0.00 in /  0 mm
16:53 70.0 °F /  21.1 °C 52.1 °F /  11.2 °C 30.23 in /  1023.6 hPa West 1.4 mph /  2.3 km/h 2.3 mph /  3.7 km/h 53 % 0.00 in /  0 mm
16:58 69.9 °F /  21.1 °C 52.5 °F /  11.4 °C 30.23 in /  1023.6 hPa WSW 1.1 mph /  1.8 km/h 3.5 mph /  5.6 km/h 54 % 0.00 in /  0 mm
17:03 69.7 °F /  20.9 °C 52.8 °F /  11.6 °C 30.23 in /  1023.6 hPa Calm     55 % 0.00 in /  0 mm
17:08 69.7 °F /  20.9 °C 53.3 °F /  11.8 °C 30.23 in /  1023.6 hPa Calm     56 % 0.00 in /  0 mm
17:13 69.5 °F /  20.8 °C 53.1 °F /  11.7 °C 30.26 in /  1024.6 hPa Calm     56 % 0.00 in /  0 mm
17:18 69.4 °F /  20.8 °C 54.0 °F /  12.2 °C 30.24 in /  1023.9 hPa SE 1.7 mph /  2.7 km/h 5.0 mph /  8 km/h 58 % 0.00 in /  0 mm
17:23 69.1 °F /  20.6 °C 53.7 °F /  12.1 °C 30.24 in /  1023.9 hPa SE 0.4 mph /  0.6 km/h   58 % 0.00 in /  0 mm
17:29 68.9 °F /  20.5 °C 54.0 °F /  12.2 °C 30.24 in /  1023.9 hPa Calm   1.2 mph /  1.9 km/h 59 % 0.00 in /  0 mm
17:34 68.7 °F /  20.4 °C 53.8 °F /  12.1 °C 30.24 in /  1023.9 hPa Calm     59 % 0.00 in /  0 mm
17:39 68.4 °F /  20.2 °C 53.5 °F /  11.9 °C 30.24 in /  1023.9 hPa Calm   1.2 mph /  1.9 km/h 59 % 0.00 in /  0 mm
17:44 68.1 °F /  20.1 °C 53.2 °F /  11.8 °C 30.24 in /  1023.9 hPa Calm   1.2 mph /  1.9 km/h 59 % 0.00 in /  0 mm
17:49 67.9 °F /  19.9 °C 53.5 °F /  11.9 °C 30.24 in /  1023.9 hPa Calm     60 % 0.00 in /  0 mm
17:54 67.6 °F /  19.8 °C 53.2 °F /  11.8 °C 30.24 in /  1023.9 hPa Calm     60 % 0.00 in /  0 mm
17:59 67.3 °F /  19.6 °C 53.4 °F /  11.9 °C 30.24 in /  1023.9 hPa Calm   1.2 mph /  1.9 km/h 61 % 0.00 in /  0 mm
18:04 66.9 °F /  19.4 °C 53.0 °F /  11.7 °C 30.25 in /  1024.3 hPa Calm     61 % 0.00 in /  0 mm
18:09 66.6 °F /  19.2 °C 52.7 °F /  11.5 °C 30.25 in /  1024.3 hPa Calm     61 % 0.00 in /  0 mm
18:14 66.2 °F /  19 °C 52.8 °F /  11.6 °C 30.25 in /  1024.3 hPa Calm     62 % 0.00 in /  0 mm
18:19 65.9 °F /  18.8 °C 52.5 °F /  11.4 °C 30.25 in /  1024.3 hPa SE 0.1 mph /  0.2 km/h 1.2 mph /  1.9 km/h 62 % 0.00 in /  0 mm
18:24 65.5 °F /  18.6 °C 52.6 °F /  11.4 °C 30.25 in /  1024.3 hPa Calm   1.2 mph /  1.9 km/h 63 % 0.00 in /  0 mm
18:29 65.2 °F /  18.4 °C 52.7 °F /  11.5 °C 30.25 in /  1024.3 hPa SE 0.2 mph /  0.3 km/h 1.2 mph /  1.9 km/h 64 % 0.00 in /  0 mm
18:34 64.8 °F /  18.2 °C 52.3 °F /  11.3 °C 30.25 in /  1024.3 hPa SE 0.3 mph /  0.5 km/h 1.2 mph /  1.9 km/h 64 % 0.00 in /  0 mm
18:39 64.4 °F /  18 °C 52.4 °F /  11.3 °C 30.25 in /  1024.3 hPa SE 0.5 mph /  0.8 km/h 1.2 mph /  1.9 km/h 65 % 0.00 in /  0 mm
18:44 64.1 °F /  17.8 °C 52.5 °F /  11.4 °C 30.26 in /  1024.6 hPa SE 0.3 mph /  0.5 km/h 1.2 mph /  1.9 km/h 66 % 0.00 in /  0 mm
18:49 63.7 °F /  17.6 °C 52.1 °F /  11.2 °C 30.26 in /  1024.6 hPa Calm   1.2 mph /  1.9 km/h 66 % 0.00 in /  0 mm
18:54 63.4 °F /  17.4 °C 52.2 °F /  11.2 °C 30.26 in /  1024.6 hPa SW 0.2 mph /  0.3 km/h 1.2 mph /  1.9 km/h 67 % 0.00 in /  0 mm
18:59 63.1 °F /  17.3 °C 52.4 °F /  11.3 °C 30.26 in /  1024.6 hPa WSW 0.9 mph /  1.4 km/h 2.3 mph /  3.7 km/h 68 % 0.00 in /  0 mm
19:05 62.8 °F /  17.1 °C 52.5 °F /  11.4 °C 30.26 in /  1024.6 hPa WSW 1.2 mph /  1.9 km/h 3.5 mph /  5.6 km/h 69 % 0.00 in /  0 mm
19:10 62.6 °F /  17 °C 52.7 °F /  11.5 °C 30.26 in /  1024.6 hPa WSW 0.8 mph /  1.3 km/h 3.5 mph /  5.6 km/h 70 % 0.00 in /  0 mm
19:14 62.3 °F /  16.8 °C 52.8 °F /  11.6 °C 30.26 in /  1024.6 hPa WSW 0.2 mph /  0.3 km/h 1.2 mph /  1.9 km/h 71 % 0.00 in /  0 mm
19:20 62.1 °F /  16.7 °C 53.0 °F /  11.7 °C 30.26 in /  1024.6 hPa WSW 0.7 mph /  1.1 km/h 2.3 mph /  3.7 km/h 72 % 0.00 in /  0 mm
19:25 61.9 °F /  16.6 °C 52.8 °F /  11.6 °C 30.26 in /  1024.6 hPa WSW 0.7 mph /  1.1 km/h 2.3 mph /  3.7 km/h 72 % 0.00 in /  0 mm
19:26 61.8 °F /  16.6 °C 53.1 °F /  11.7 °C 30.26 in /  1024.6 hPa WSW 0.8 mph /  1.3 km/h 2.0 mph /  3.2 km/h 73 % 0.00 in /  0 mm
19:31 61.7 °F /  16.5 °C 53.0 °F /  11.7 °C 30.26 in /  1024.6 hPa WSW 0.5 mph /  0.8 km/h 2.3 mph /  3.7 km/h 73 % 0.00 in /  0 mm
19:36 61.5 °F /  16.4 °C 53.1 °F /  11.7 °C 30.26 in /  1024.6 hPa WSW 0.4 mph /  0.6 km/h 3.5 mph /  5.6 km/h 74 % 0.00 in /  0 mm
19:41 61.3 °F /  16.3 °C 53.3 °F /  11.8 °C 30.26 in /  1024.6 hPa WSW 0.5 mph /  0.8 km/h 1.2 mph /  1.9 km/h 75 % 0.00 in /  0 mm
19:46 61.2 °F /  16.2 °C 53.2 °F /  11.8 °C 30.26 in /  1024.6 hPa WSW 1.8 mph /  2.9 km/h 2.3 mph /  3.7 km/h 75 % 0.00 in /  0 mm
19:51 61.1 °F /  16.2 °C 53.1 °F /  11.7 °C 30.26 in /  1024.6 hPa WSW 1.1 mph /  1.8 km/h 2.3 mph /  3.7 km/h 75 % 0.00 in /  0 mm
19:56 61.0 °F /  16.1 °C 53.0 °F /  11.7 °C 30.26 in /  1024.6 hPa WSW 0.6 mph /  1 km/h 3.5 mph /  5.6 km/h 75 % 0.00 in /  0 mm
20:01 60.9 °F /  16.1 °C 53.3 °F /  11.8 °C 30.26 in /  1024.6 hPa Calm     76 % 0.00 in /  0 mm
20:06 60.8 °F /  16 °C 53.5 °F /  11.9 °C 30.26 in /  1024.6 hPa WSW 0.5 mph /  0.8 km/h 2.3 mph /  3.7 km/h 77 % 0.00 in /  0 mm
20:12 60.7 °F /  15.9 °C 53.4 °F /  11.9 °C 30.26 in /  1024.6 hPa WSW 0.8 mph /  1.3 km/h 3.5 mph /  5.6 km/h 77 % 0.00 in /  0 mm
20:17 60.6 °F /  15.9 °C 53.3 °F /  11.8 °C 30.26 in /  1024.6 hPa WSW 0.9 mph /  1.4 km/h 2.3 mph /  3.7 km/h 77 % 0.00 in /  0 mm
20:22 60.5 °F /  15.8 °C 53.3 °F /  11.8 °C 30.26 in /  1024.6 hPa SW 0.5 mph /  0.8 km/h 3.5 mph /  5.6 km/h 77 % 0.00 in /  0 mm
20:27 60.4 °F /  15.8 °C 53.5 °F /  11.9 °C 30.26 in /  1024.6 hPa SSW 0.7 mph /  1.1 km/h 2.3 mph /  3.7 km/h 78 % 0.00 in /  0 mm
20:32 60.3 °F /  15.7 °C 53.8 °F /  12.1 °C 30.27 in /  1024.9 hPa SW 1.0 mph /  1.6 km/h 2.3 mph /  3.7 km/h 79 % 0.00 in /  0 mm
20:37 60.3 °F /  15.7 °C 53.8 °F /  12.1 °C 30.27 in /  1024.9 hPa SW 1.1 mph /  1.8 km/h 3.5 mph /  5.6 km/h 79 % 0.00 in /  0 mm
20:42 60.2 °F /  15.7 °C 53.7 °F /  12.1 °C 30.27 in /  1024.9 hPa SW 0.8 mph /  1.3 km/h 3.0 mph /  4.8 km/h 79 % 0.00 in /  0 mm
20:47 60.2 °F /  15.7 °C 54.0 °F /  12.2 °C 30.27 in /  1024.9 hPa SW 0.5 mph /  0.8 km/h 5.8 mph /  9.3 km/h 80 % 0.00 in /  0 mm
20:52 60.2 °F /  15.7 °C 54.0 °F /  12.2 °C 30.27 in /  1024.9 hPa WSW 1.3 mph /  2.1 km/h 3.5 mph /  5.6 km/h 80 % 0.00 in /  0 mm
20:57 60.2 °F /  15.7 °C 54.0 °F /  12.2 °C 30.27 in /  1024.9 hPa WSW 0.8 mph /  1.3 km/h 1.2 mph /  1.9 km/h 80 % 0.00 in /  0 mm
21:02 60.1 °F /  15.6 °C 54.2 °F /  12.3 °C 30.27 in /  1024.9 hPa SW 0.1 mph /  0.2 km/h 3.5 mph /  5.6 km/h 81 % 0.00 in /  0 mm
21:07 60.1 °F /  15.6 °C 54.2 °F /  12.3 °C 30.27 in /  1024.9 hPa WSW 0.3 mph /  0.5 km/h 1.2 mph /  1.9 km/h 81 % 0.00 in /  0 mm
21:12 60.0 °F /  15.6 °C 54.2 °F /  12.3 °C 30.27 in /  1024.9 hPa WSW 0.9 mph /  1.4 km/h 2.3 mph /  3.7 km/h 81 % 0.00 in /  0 mm
21:18 60.0 °F /  15.6 °C 54.5 °F /  12.5 °C 30.27 in /  1024.9 hPa WSW 0.7 mph /  1.1 km/h 3.0 mph /  4.8 km/h 82 % 0.00 in /  0 mm
21:23 59.9 °F /  15.5 °C 54.4 °F /  12.4 °C 30.27 in /  1024.9 hPa SW 0.5 mph /  0.8 km/h 3.5 mph /  5.6 km/h 82 % 0.00 in /  0 mm
21:28 59.9 °F /  15.5 °C 54.4 °F /  12.4 °C 30.27 in /  1024.9 hPa SW 0.4 mph /  0.6 km/h 1.2 mph /  1.9 km/h 82 % 0.00 in /  0 mm
21:33 59.8 °F /  15.4 °C 54.3 °F /  12.4 °C 30.27 in /  1024.9 hPa SW 1.1 mph /  1.8 km/h 2.3 mph /  3.7 km/h 82 % 0.00 in /  0 mm
21:38 59.8 °F /  15.4 °C 54.6 °F /  12.6 °C 30.28 in /  1025.3 hPa SW 0.4 mph /  0.6 km/h 2.3 mph /  3.7 km/h 83 % 0.00 in /  0 mm
21:43 59.8 °F /  15.4 °C 54.6 °F /  12.6 °C 30.28 in /  1025.3 hPa SSW 0.4 mph /  0.6 km/h 2.3 mph /  3.7 km/h 83 % 0.00 in /  0 mm
21:48 59.7 °F /  15.4 °C 54.5 °F /  12.5 °C 30.27 in /  1024.9 hPa SSW 0.7 mph /  1.1 km/h 1.2 mph /  1.9 km/h 83 % 0.00 in /  0 mm
21:53 59.6 °F /  15.3 °C 54.4 °F /  12.4 °C 30.28 in /  1025.3 hPa SSW 1.3 mph /  2.1 km/h 2.3 mph /  3.7 km/h 83 % 0.00 in /  0 mm
21:58 59.6 °F /  15.3 °C 54.4 °F /  12.4 °C 30.27 in /  1024.9 hPa SSW 0.7 mph /  1.1 km/h 2.0 mph /  3.2 km/h 83 % 0.00 in /  0 mm
22:03 59.5 °F /  15.3 °C 54.3 °F /  12.4 °C 30.27 in /  1024.9 hPa SW 0.4 mph /  0.6 km/h 2.3 mph /  3.7 km/h 83 % 0.00 in /  0 mm
22:08 59.4 °F /  15.2 °C 54.2 °F /  12.3 °C 30.27 in /  1024.9 hPa SW 0.2 mph /  0.3 km/h 3.5 mph /  5.6 km/h 83 % 0.00 in /  0 mm
22:13 59.4 °F /  15.2 °C 54.2 °F /  12.3 °C 30.27 in /  1024.9 hPa SW 0.7 mph /  1.1 km/h 3.5 mph /  5.6 km/h 83 % 0.00 in /  0 mm
22:18 59.3 °F /  15.2 °C 54.1 °F /  12.3 °C 30.27 in /  1024.9 hPa SSW 0.1 mph /  0.2 km/h 2.3 mph /  3.7 km/h 83 % 0.00 in /  0 mm
22:23 59.3 °F /  15.2 °C 54.1 °F /  12.3 °C 30.27 in /  1024.9 hPa South 0.5 mph /  0.8 km/h 1.2 mph /  1.9 km/h 83 % 0.00 in /  0 mm
22:28 59.3 °F /  15.2 °C 54.5 °F /  12.5 °C 30.27 in /  1024.9 hPa WSW 0.9 mph /  1.4 km/h 2.0 mph /  3.2 km/h 84 % 0.00 in /  0 mm
22:33 59.3 °F /  15.2 °C 54.5 °F /  12.5 °C 30.27 in /  1024.9 hPa WSW 0.1 mph /  0.2 km/h 3.5 mph /  5.6 km/h 84 % 0.00 in /  0 mm
22:38 59.3 °F /  15.2 °C 54.5 °F /  12.5 °C 30.27 in /  1024.9 hPa WSW 0.7 mph /  1.1 km/h 1.2 mph /  1.9 km/h 84 % 0.00 in /  0 mm
22:44 59.3 °F /  15.2 °C 54.8 °F /  12.7 °C 30.27 in /  1024.9 hPa WSW 2.7 mph /  4.3 km/h 5.0 mph /  8 km/h 85 % 0.00 in /  0 mm
22:49 59.3 °F /  15.2 °C 54.8 °F /  12.7 °C 30.27 in /  1024.9 hPa SW 0.9 mph /  1.4 km/h 3.5 mph /  5.6 km/h 85 % 0.00 in /  0 mm
22:54 59.2 °F /  15.1 °C 54.7 °F /  12.6 °C 30.27 in /  1024.9 hPa West 1.3 mph /  2.1 km/h 5.0 mph /  8 km/h 85 % 0.00 in /  0 mm
22:59 59.2 °F /  15.1 °C 54.7 °F /  12.6 °C 30.27 in /  1024.9 hPa WSW 0.9 mph /  1.4 km/h 3.5 mph /  5.6 km/h 85 % 0.00 in /  0 mm
23:04 59.2 °F /  15.1 °C 54.4 °F /  12.4 °C 30.27 in /  1024.9 hPa SW 0.6 mph /  1 km/h 3.5 mph /  5.6 km/h 84 % 0.00 in /  0 mm
23:09 59.2 °F /  15.1 °C 54.4 °F /  12.4 °C 30.27 in /  1024.9 hPa SW 0.8 mph /  1.3 km/h 2.3 mph /  3.7 km/h 84 % 0.00 in /  0 mm
23:17 59.1 °F /  15.1 °C 54.3 °F /  12.4 °C 30.27 in /  1024.9 hPa SW 1.2 mph /  1.9 km/h 4.0 mph /  6.4 km/h 84 % 0.00 in /  0 mm
23:20 59.1 °F /  15.1 °C 54.3 °F /  12.4 °C 30.27 in /  1024.9 hPa SW 1.3 mph /  2.1 km/h 8.1 mph /  13 km/h 84 % 0.00 in /  0 mm
23:21 59.1 °F /  15.1 °C 54.3 °F /  12.4 °C 30.27 in /  1024.9 hPa SW 1.5 mph /  2.4 km/h 3.5 mph /  5.6 km/h 84 % 0.00 in /  0 mm
23:26 59.1 °F /  15.1 °C 53.9 °F /  12.2 °C 30.27 in /  1024.9 hPa WSW 1.0 mph /  1.6 km/h 3.5 mph /  5.6 km/h 83 % 0.00 in /  0 mm
23:27 59.1 °F /  15.1 °C 53.9 °F /  12.2 °C 30.04 in /  1017.2 hPa WSW 0.6 mph /  1 km/h 2.3 mph /  3.7 km/h 83 % 0.00 in /  0 mm
23:28 59.1 °F /  15.1 °C 53.9 °F /  12.2 °C 30.27 in /  1024.9 hPa WSW 0.7 mph /  1.1 km/h 2.3 mph /  3.7 km/h 83 % 0.00 in /  0 mm
23:31 59.1 °F /  15.1 °C 53.9 °F /  12.2 °C 30.27 in /  1024.9 hPa WSW 1.1 mph /  1.8 km/h 5.8 mph /  9.3 km/h 83 % 0.00 in /  0 mm
23:36 59.1 °F /  15.1 °C 53.6 °F /  12 °C 30.27 in /  1024.9 hPa WSW 0.5 mph /  0.8 km/h 2.0 mph /  3.2 km/h 82 % 0.00 in /  0 mm
23:39 59.1 °F /  15.1 °C 53.6 °F /  12 °C 30.04 in /  1017.2 hPa WSW 1.0 mph /  1.6 km/h 2.3 mph /  3.7 km/h 82 % 0.00 in /  0 mm
23:41 59.1 °F /  15.1 °C 53.6 °F /  12 °C 30.27 in /  1024.9 hPa WSW 1.3 mph /  2.1 km/h 3.5 mph /  5.6 km/h 82 % 0.00 in /  0 mm
23:46 59.2 °F /  15.1 °C 53.7 °F /  12.1 °C 30.26 in /  1024.6 hPa SW 2.1 mph /  3.4 km/h 3.5 mph /  5.6 km/h 82 % 0.00 in /  0 mm
23:51 59.2 °F /  15.1 °C 53.4 °F /  11.9 °C 30.27 in /  1024.9 hPa SW 1.5 mph /  2.4 km/h 3.0 mph /  4.8 km/h 81 % 0.00 in /  0 mm
23:56 59.1 °F /  15.1 °C 53.3 °F /  11.8 °C 30.27 in /  1024.9 hPa West 2.0 mph /  3.2 km/h 3.5 mph /  5.6 km/h 81 % 0.00 in /  0 mm
Crab Meadow Weather
Compliments of Weather Underground - 3 mb

Script developed by  Jim McMurry - jmcmurry@mwt.net Adapted for the template by  Wim van der Kuil - Leuven-Template.eu

Recycling: A used aluminum can is recycled and back on the grocery shelf as a new can, in as little as 60 days.